Time;durP1;ratioP1;P1;durP2;ratioP2;P2;SDS_P1;SDS_P2;PMS_P1;PMS_P2;Temp;Humidity;BMP_temperature;BMP_pressure;BME280_temperature;BME280_humidity;BME280_pressure;Samples;Min_cycle;Max_cycle;Signal;HPM_P1;HPM_P2
2021/07/02 00:00:29;;;;;;;0.10;0.10;;;;;;;;;;5023221;28;20443;-66
2021/07/02 00:02:55;;;;;;;0.03;0.03;;;;;;;;;;5009055;28;20459;-66
2021/07/02 00:05:23;;;;;;;0.10;0.10;;;;;;;;;;5022729;28;20544;-66
2021/07/02 00:07:49;;;;;;;0.10;0.10;;;;;;;;;;5022814;28;20427;-67
2021/07/02 00:10:15;;;;;;;0.10;0.10;;;;;;;;;;5004113;28;20214;-65
2021/07/02 00:12:41;;;;;;;0.10;0.10;;;;;;;;;;5014440;28;20215;-65
2021/07/02 00:15:08;;;;;;;0.10;0.10;;;;;;;;;;5022381;28;20223;-65
2021/07/02 00:17:34;;;;;;;0.10;0.10;;;;;;;;;;5022738;28;20227;-66
2021/07/02 00:20:01;;;;;;;0.00;0.00;;;;;;;;;;5023078;28;20218;-65
2021/07/02 00:22:28;;;;;;;0.00;0.00;;;;;;;;;;5022858;28;20207;-68
2021/07/02 00:24:54;;;;;;;0.10;0.10;;;;;;;;;;5009275;28;20297;-67
2021/07/02 00:27:21;;;;;;;0.10;0.10;;;;;;;;;;5021472;28;20573;-66
2021/07/02 00:29:47;;;;;;;0.10;0.10;;;;;;;;;;5020629;28;20234;-67
2021/07/02 00:32:13;;;;;;;0.10;0.10;;;;;;;;;;5021065;28;20229;-67
2021/07/02 00:34:39;;;;;;;0.10;0.10;;;;;;;;;;5022292;28;20208;-66
2021/07/02 00:37:06;;;;;;;0.10;0.10;;;;;;;;;;5013096;28;20353;-67
2021/07/02 00:39:33;;;;;;;0.10;0.10;;;;;;;;;;5004363;28;20249;-67
2021/07/02 00:42:00;;;;;;;0.10;0.10;;;;;;;;;;5014811;28;20352;-67
2021/07/02 00:44:39;;;;;;;0.10;0.10;;;;;;;;;;5016262;28;20502;-66
2021/07/02 00:47:06;;;;;;;0.03;0.03;;;;;;;;;;5002931;28;20266;-66
2021/07/02 00:49:33;;;;;;;0.10;0.10;;;;;;;;;;5015916;28;20206;-66
2021/07/02 00:51:59;;;;;;;0.10;0.10;;;;;;;;;;5022184;28;20402;-67
2021/07/02 00:54:25;;;;;;;0.10;0.10;;;;;;;;;;5022584;28;20339;-66
2021/07/02 00:56:53;;;;;;;0.10;0.10;;;;;;;;;;5022131;28;20294;-65
2021/07/02 00:59:19;;;;;;;0.10;0.10;;;;;;;;;;5022368;28;20398;-66
2021/07/02 01:01:45;;;;;;;0.10;0.10;;;;;;;;;;5020444;28;20450;-66
2021/07/02 01:04:12;;;;;;;0.10;0.10;;;;;;;;;;5010315;28;20214;-66
2021/07/02 01:06:38;;;;;;;0.07;0.07;;;;;;;;;;5022283;28;20257;-66
2021/07/02 01:09:05;;;;;;;0.10;0.10;;;;;;;;;;5022363;28;20203;-65
2021/07/02 01:11:33;;;;;;;0.00;0.00;;;;;;;;;;5022378;28;20226;-66
2021/07/02 01:14:00;;;;;;;0.10;0.10;;;;;;;;;;5008419;28;20207;-65
2021/07/02 01:16:26;;;;;;;0.10;0.10;;;;;;;;;;5011636;28;20225;-67
2021/07/02 01:18:53;;;;;;;0.10;0.10;;;;;;;;;;5025504;28;20316;-65
2021/07/02 01:21:20;;;;;;;0.10;0.10;;;;;;;;;;5028740;28;20254;-66
2021/07/02 01:23:47;;;;;;;0.10;0.10;;;;;;;;;;5014555;28;20210;-65
2021/07/02 01:26:14;;;;;;;0.10;0.10;;;;;;;;;;5011121;28;20230;-66
2021/07/02 01:28:40;;;;;;;0.10;0.10;;;;;;;;;;5009255;28;20241;-66
2021/07/02 01:31:06;;;;;;;0.10;0.10;;;;;;;;;;5027787;28;20276;-66
2021/07/02 01:33:33;;;;;;;0.00;0.00;;;;;;;;;;5028806;28;20450;-67
2021/07/02 01:36:00;;;;;;;0.03;0.03;;;;;;;;;;5028628;28;20215;-66
2021/07/02 01:38:27;;;;;;;0.10;0.10;;;;;;;;;;5019915;28;20361;-67
2021/07/02 01:40:54;;;;;;;0.10;0.10;;;;;;;;;;5023418;28;20212;-67
2021/07/02 01:43:20;;;;;;;0.00;0.00;;;;;;;;;;5028544;28;20212;-67
2021/07/02 01:45:46;;;;;;;0.10;0.10;;;;;;;;;;5028618;28;20210;-67
2021/07/02 01:48:12;;;;;;;0.10;0.10;;;;;;;;;;5028215;28;20242;-67
2021/07/02 01:50:39;;;;;;;0.00;0.00;;;;;;;;;;5028498;28;20233;-67
2021/07/02 01:53:05;;;;;;;0.03;0.03;;;;;;;;;;5025287;28;20204;-68
2021/07/02 01:55:32;;;;;;;0.00;0.00;;;;;;;;;;5017683;28;20211;-67
2021/07/02 01:57:59;;;;;;;0.00;0.00;;;;;;;;;;5014185;28;20235;-66
2021/07/02 02:00:25;;;;;;;0.10;0.10;;;;;;;;;;5028368;28;20529;-67
2021/07/02 02:02:51;;;;;;;0.10;0.10;;;;;;;;;;5028593;28;20207;-66
2021/07/02 02:05:17;;;;;;;0.03;0.03;;;;;;;;;;5014590;28;20546;-69
2021/07/02 02:07:44;;;;;;;0.10;0.10;;;;;;;;;;5028122;28;20238;-67
2021/07/02 02:10:10;;;;;;;0.10;0.10;;;;;;;;;;5010619;28;20226;-68
2021/07/02 02:12:38;;;;;;;0.10;0.10;;;;;;;;;;5018298;28;20273;-67
2021/07/02 02:15:04;;;;;;;0.10;0.10;;;;;;;;;;5028112;28;20218;-67
2021/07/02 02:17:31;;;;;;;0.10;0.10;;;;;;;;;;5028076;28;20300;-67
2021/07/02 02:19:57;;;;;;;0.10;0.10;;;;;;;;;;5014081;28;20211;-67
2021/07/02 02:22:26;;;;;;;0.10;0.10;;;;;;;;;;5021320;28;20201;-68
2021/07/02 02:24:52;;;;;;;0.10;0.10;;;;;;;;;;5021191;28;20352;-67
2021/07/02 02:27:19;;;;;;;0.10;0.10;;;;;;;;;;5014048;28;20257;-66
2021/07/02 02:29:47;;;;;;;0.10;0.10;;;;;;;;;;5024751;28;20212;-67
2021/07/02 02:32:14;;;;;;;0.10;0.10;;;;;;;;;;5024729;28;20380;-66
2021/07/02 02:34:40;;;;;;;0.10;0.10;;;;;;;;;;5024901;28;20254;-66
2021/07/02 02:37:06;;;;;;;0.10;0.10;;;;;;;;;;5024635;28;20217;-67
2021/07/02 02:39:32;;;;;;;0.10;0.10;;;;;;;;;;5024418;28;20243;-66
2021/07/02 02:41:59;;;;;;;0.10;0.10;;;;;;;;;;5024745;28;20211;-66
2021/07/02 02:44:25;;;;;;;0.10;0.10;;;;;;;;;;5023083;28;20250;-66
2021/07/02 02:46:52;;;;;;;0.10;0.10;;;;;;;;;;5012852;28;20500;-66
2021/07/02 02:49:19;;;;;;;0.10;0.10;;;;;;;;;;5024638;28;20386;-66
2021/07/02 02:51:45;;;;;;;0.03;0.03;;;;;;;;;;5024260;28;20210;-68
2021/07/02 02:54:11;;;;;;;0.03;0.03;;;;;;;;;;5024775;28;20499;-67
2021/07/02 02:57:03;;;;;;;0.00;0.00;;;;;;;;;;5010728;28;20202;-66
2021/07/02 02:59:24;;;;;;;0.10;0.10;;;;;;;;;;5010986;28;20274;-67
2021/07/02 03:01:50;;;;;;;0.10;0.10;;;;;;;;;;5024107;28;20247;-66
2021/07/02 03:04:18;;;;;;;0.10;0.10;;;;;;;;;;5024427;28;20230;-67
2021/07/02 03:06:44;;;;;;;0.10;0.10;;;;;;;;;;5020703;28;20207;-66
2021/07/02 03:09:10;;;;;;;0.00;0.00;;;;;;;;;;5004755;28;20484;-66
2021/07/02 03:11:36;;;;;;;0.10;0.10;;;;;;;;;;5019943;28;20258;-66
2021/07/02 03:14:03;;;;;;;0.00;0.00;;;;;;;;;;5024136;28;20210;-66
2021/07/02 03:16:30;;;;;;;0.10;0.10;;;;;;;;;;5023922;28;20342;-67
2021/07/02 03:18:56;;;;;;;0.10;0.10;;;;;;;;;;5023757;28;20426;-68
2021/07/02 03:21:23;;;;;;;0.00;0.00;;;;;;;;;;5012125;28;20213;-67
2021/07/02 03:23:50;;;;;;;0.83;0.83;;;;;;;;;;5022802;28;20208;-65
2021/07/02 03:26:17;;;;;;;0.10;0.10;;;;;;;;;;5024181;28;20274;-66
2021/07/02 03:28:44;;;;;;;0.03;0.03;;;;;;;;;;5023861;28;20205;-65
2021/07/02 03:31:10;;;;;;;0.10;0.10;;;;;;;;;;5014971;28;20282;-66
2021/07/02 03:33:36;;;;;;;0.00;0.00;;;;;;;;;;5017602;28;20211;-67
2021/07/02 03:36:02;;;;;;;0.00;0.00;;;;;;;;;;5020623;28;20254;-65
2021/07/02 03:38:30;;;;;;;0.00;0.00;;;;;;;;;;5023904;28;20234;-66
2021/07/02 03:40:56;;;;;;;0.10;0.10;;;;;;;;;;5008335;28;20254;-67
2021/07/02 03:43:23;;;;;;;0.00;0.00;;;;;;;;;;5023839;28;20420;-67
2021/07/02 03:45:49;;;;;;;0.00;0.00;;;;;;;;;;5023764;28;20205;-66
2021/07/02 03:48:16;;;;;;;0.10;0.10;;;;;;;;;;5023144;28;20360;-66
2021/07/02 03:50:42;;;;;;;0.00;0.00;;;;;;;;;;5023441;28;20517;-66
2021/07/02 03:53:08;;;;;;;0.10;0.10;;;;;;;;;;5023392;28;20495;-66
2021/07/02 03:55:36;;;;;;;0.03;0.03;;;;;;;;;;5004196;28;20270;-66
2021/07/02 03:58:03;;;;;;;0.00;0.00;;;;;;;;;;5019707;28;20236;-67
2021/07/02 04:00:29;;;;;;;0.07;0.07;;;;;;;;;;5023421;28;20254;-67
2021/07/02 04:02:55;;;;;;;0.10;0.10;;;;;;;;;;5023401;28;20283;-65
2021/07/02 04:05:22;;;;;;;0.03;0.03;;;;;;;;;;5023200;28;20201;-66
2021/07/02 04:07:48;;;;;;;0.10;0.10;;;;;;;;;;5023339;28;20212;-65
2021/07/02 04:10:14;;;;;;;0.10;0.10;;;;;;;;;;5023485;28;20208;-65
2021/07/02 04:12:42;;;;;;;0.00;0.00;;;;;;;;;;5023528;28;20211;-66
2021/07/02 04:15:09;;;;;;;0.10;0.10;;;;;;;;;;5022978;28;20266;-66
2021/07/02 04:17:37;;;;;;;0.10;0.10;;;;;;;;;;5023355;28;20207;-67
2021/07/02 04:20:04;;;;;;;0.10;0.10;;;;;;;;;;5009680;28;20415;-65
2021/07/02 04:22:30;;;;;;;0.10;0.10;;;;;;;;;;5023322;28;20204;-67
2021/07/02 04:24:56;;;;;;;0.00;0.00;;;;;;;;;;5023406;28;20542;-67
2021/07/02 04:27:23;;;;;;;0.10;0.10;;;;;;;;;;5017296;28;20417;-66
2021/07/02 04:29:50;;;;;;;0.10;0.10;;;;;;;;;;5014537;28;20204;-67
2021/07/02 04:32:17;;;;;;;0.00;0.00;;;;;;;;;;5018971;28;20275;-66
2021/07/02 04:34:43;;;;;;;0.00;0.00;;;;;;;;;;5012925;28;20256;-67
2021/07/02 04:37:09;;;;;;;0.00;0.00;;;;;;;;;;5023073;28;20260;-67
2021/07/02 04:39:36;;;;;;;0.03;0.03;;;;;;;;;;5022595;28;20243;-66
2021/07/02 04:42:02;;;;;;;0.00;0.00;;;;;;;;;;5021537;28;20227;-68
2021/07/02 04:44:28;;;;;;;0.00;0.00;;;;;;;;;;5020840;28;20208;-66
2021/07/02 04:46:56;;;;;;;0.10;0.10;;;;;;;;;;5022509;28;20254;-67
2021/07/02 04:49:22;;;;;;;0.00;0.00;;;;;;;;;;5022171;28;20202;-66
2021/07/02 04:51:48;;;;;;;0.10;0.10;;;;;;;;;;5019196;28;20210;-68
2021/07/02 04:54:15;;;;;;;0.07;0.07;;;;;;;;;;5022108;28;20283;-67
2021/07/02 04:56:46;;;;;;;0.10;0.10;;;;;;;;;;5021902;28;20381;-66
2021/07/02 04:59:12;;;;;;;0.10;0.10;;;;;;;;;;5021209;28;20272;-66
2021/07/02 05:01:38;;;;;;;0.10;0.10;;;;;;;;;;5021057;28;20208;-67
2021/07/02 05:04:07;;;;;;;0.00;0.00;;;;;;;;;;5022008;28;20430;-67
2021/07/02 05:06:33;;;;;;;0.10;0.10;;;;;;;;;;5019360;28;20209;-68
2021/07/02 05:08:59;;;;;;;0.70;0.70;;;;;;;;;;5019912;28;20460;-67
2021/07/02 05:11:26;;;;;;;0.20;0.20;;;;;;;;;;5016945;28;20572;-67
2021/07/02 05:13:52;;;;;;;0.10;0.10;;;;;;;;;;5011147;28;20381;-66
2021/07/02 05:16:18;;;;;;;0.10;0.10;;;;;;;;;;5018774;28;20262;-66
2021/07/02 05:18:44;;;;;;;0.10;0.10;;;;;;;;;;5022242;28;20286;-67
2021/07/02 05:21:12;;;;;;;0.10;0.10;;;;;;;;;;5011978;28;20212;-66
2021/07/02 05:23:38;;;;;;;0.00;0.00;;;;;;;;;;5012090;28;20212;-66
2021/07/02 05:26:05;;;;;;;0.10;0.10;;;;;;;;;;5013661;28;20270;-68
2021/07/02 05:28:33;;;;;;;0.10;0.10;;;;;;;;;;5011244;28;20208;-66
2021/07/02 05:30:59;;;;;;;0.40;0.40;;;;;;;;;;5015008;28;20273;-68
2021/07/02 05:33:25;;;;;;;0.10;0.10;;;;;;;;;;5019596;28;20204;-67
2021/07/02 05:35:51;;;;;;;0.00;0.00;;;;;;;;;;5020467;28;20215;-67
2021/07/02 05:38:19;;;;;;;0.10;0.10;;;;;;;;;;5009652;28;20315;-68
2021/07/02 05:40:45;;;;;;;0.00;0.00;;;;;;;;;;5022449;28;20219;-67
2021/07/02 05:43:11;;;;;;;0.00;0.00;;;;;;;;;;5002498;28;20212;-67
2021/07/02 05:45:38;;;;;;;0.10;0.10;;;;;;;;;;5002849;28;20202;-67
2021/07/02 05:48:05;;;;;;;0.10;0.10;;;;;;;;;;5013503;28;20203;-66
2021/07/02 05:50:31;;;;;;;0.00;0.00;;;;;;;;;;5021948;28;20373;-66
2021/07/02 05:52:57;;;;;;;0.10;0.10;;;;;;;;;;5019880;28;20212;-66
2021/07/02 05:55:25;;;;;;;0.10;0.10;;;;;;;;;;5014759;28;20250;-67
2021/07/02 05:57:52;;;;;;;0.10;0.10;;;;;;;;;;5011823;28;20215;-65
2021/07/02 06:00:19;;;;;;;0.00;0.00;;;;;;;;;;5012844;28;20228;-66
2021/07/02 06:02:45;;;;;;;0.10;0.10;;;;;;;;;;5016934;28;20311;-67
2021/07/02 06:05:12;;;;;;;0.10;0.10;;;;;;;;;;5020734;28;20540;-67
2021/07/02 06:07:42;;;;;;;0.10;0.10;;;;;;;;;;5025321;28;20259;-66
2021/07/02 06:10:09;;;;;;;0.10;0.10;;;;;;;;;;5022181;28;20200;-66
2021/07/02 06:12:36;;;;;;;0.00;0.00;;;;;;;;;;5005789;28;20272;-66
2021/07/02 06:15:03;;;;;;;0.10;0.10;;;;;;;;;;5019585;28;20219;-66
2021/07/02 06:17:29;;;;;;;0.10;0.10;;;;;;;;;;5019516;28;20487;-67
2021/07/02 06:19:55;;;;;;;0.10;0.10;;;;;;;;;;5013209;28;20229;-66
2021/07/02 06:22:21;;;;;;;0.00;0.00;;;;;;;;;;5015137;28;20204;-67
2021/07/02 06:24:47;;;;;;;0.10;0.10;;;;;;;;;;5022887;28;20230;-66
2021/07/02 06:27:14;;;;;;;0.10;0.10;;;;;;;;;;5021974;28;20486;-67
2021/07/02 06:29:41;;;;;;;0.03;0.03;;;;;;;;;;5025453;28;20259;-69
2021/07/02 06:32:08;;;;;;;0.10;0.10;;;;;;;;;;5025396;28;20264;-66
2021/07/02 06:34:34;;;;;;;0.10;0.10;;;;;;;;;;5025168;28;20251;-68
2021/07/02 06:37:00;;;;;;;0.10;0.10;;;;;;;;;;5025020;28;20210;-67
2021/07/02 06:39:26;;;;;;;0.00;0.00;;;;;;;;;;5021624;28;20442;-67
2021/07/02 06:41:53;;;;;;;0.10;0.10;;;;;;;;;;5013568;28;20230;-66
2021/07/02 06:44:19;;;;;;;0.10;0.10;;;;;;;;;;5024893;28;20515;-67
2021/07/02 06:46:47;;;;;;;0.05;0.05;;;;;;;;;;5020381;28;20201;-66
2021/07/02 06:49:13;;;;;;;0.00;0.00;;;;;;;;;;5025119;28;20206;-67
2021/07/02 06:51:39;;;;;;;0.10;0.10;;;;;;;;;;5020385;28;20213;-68
2021/07/02 06:54:06;;;;;;;0.10;0.10;;;;;;;;;;5020692;28;20492;-68
2021/07/02 06:56:32;;;;;;;0.10;0.10;;;;;;;;;;5024713;28;20482;-67
2021/07/02 06:58:59;;;;;;;0.10;0.10;;;;;;;;;;5024466;28;20272;-69
2021/07/02 07:01:25;;;;;;;0.10;0.10;;;;;;;;;;5018757;28;20493;-67
2021/07/02 07:03:53;;;;;;;0.03;0.03;;;;;;;;;;5022584;28;20331;-67
2021/07/02 07:06:19;;;;;;;0.10;0.10;;;;;;;;;;5020758;28;20497;-67
2021/07/02 07:08:45;;;;;;;0.10;0.10;;;;;;;;;;5017054;28;20267;-67
2021/07/02 07:11:12;;;;;;;0.00;0.00;;;;;;;;;;5020556;28;20249;-67
2021/07/02 07:13:41;;;;;;;0.00;0.00;;;;;;;;;;5012939;28;20269;-66
2021/07/02 07:16:07;;;;;;;0.00;0.00;;;;;;;;;;5016323;28;20255;-67
2021/07/02 07:18:33;;;;;;;0.10;0.10;;;;;;;;;;5010816;28;20199;-67
2021/07/02 07:21:01;;;;;;;0.10;0.10;;;;;;;;;;5014185;28;20440;-67
2021/07/02 07:23:27;;;;;;;0.10;0.10;;;;;;;;;;5021047;28;20244;-67
2021/07/02 07:25:53;;;;;;;0.00;0.00;;;;;;;;;;5022260;28;20417;-68
2021/07/02 07:28:20;;;;;;;0.08;0.08;;;;;;;;;;5020211;28;20230;-68
2021/07/02 07:30:46;;;;;;;0.10;0.10;;;;;;;;;;5023803;28;20202;-68
2021/07/02 07:33:12;;;;;;;0.10;0.10;;;;;;;;;;5020838;28;20222;-68
2021/07/02 07:35:41;;;;;;;0.00;0.00;;;;;;;;;;5023343;28;20199;-69
2021/07/02 07:38:08;;;;;;;0.08;0.08;;;;;;;;;;5015064;28;20403;-68
2021/07/02 07:40:35;;;;;;;0.05;0.05;;;;;;;;;;5015293;28;20222;-68
2021/07/02 07:43:01;;;;;;;0.10;0.10;;;;;;;;;;5021465;28;20211;-68
2021/07/02 07:45:27;;;;;;;0.08;0.08;;;;;;;;;;5018048;28;20211;-68
2021/07/02 07:47:53;;;;;;;0.10;0.10;;;;;;;;;;5021599;28;20218;-67
2021/07/02 07:50:22;;;;;;;0.00;0.00;;;;;;;;;;5020576;28;20250;-68
2021/07/02 07:52:54;;;;;;;0.00;0.00;;;;;;;;;;5023981;28;20219;-68
2021/07/02 07:55:22;;;;;;;0.08;0.08;;;;;;;;;;5012900;28;20379;-68
2021/07/02 07:57:48;;;;;;;0.00;0.00;;;;;;;;;;5018798;28;20492;-68
2021/07/02 08:00:15;;;;;;;0.10;0.10;;;;;;;;;;5019838;28;20537;-68
2021/07/02 08:02:41;;;;;;;0.00;0.00;;;;;;;;;;5023845;28;20203;-68
2021/07/02 08:05:08;;;;;;;0.10;0.10;;;;;;;;;;5023656;28;20211;-68
2021/07/02 08:07:38;;;;;;;0.00;0.00;;;;;;;;;;5020390;28;20432;-68
2021/07/02 08:10:05;;;;;;;0.10;0.10;;;;;;;;;;5017623;28;20221;-68
2021/07/02 08:12:32;;;;;;;0.10;0.10;;;;;;;;;;5010761;28;20203;-67
2021/07/02 08:14:59;;;;;;;0.10;0.10;;;;;;;;;;5019037;28;20356;-68
2021/07/02 08:17:30;;;;;;;0.10;0.10;;;;;;;;;;5022421;28;20402;-69
2021/07/02 08:19:56;;;;;;;0.10;0.10;;;;;;;;;;5022453;28;20231;-68
2021/07/02 08:22:23;;;;;;;0.00;0.00;;;;;;;;;;5016638;28;20256;-68
2021/07/02 08:24:49;;;;;;;0.10;0.10;;;;;;;;;;5023309;28;20262;-68
2021/07/02 08:27:15;;;;;;;0.00;0.00;;;;;;;;;;5011232;28;20251;-68
2021/07/02 08:29:42;;;;;;;0.00;0.00;;;;;;;;;;5022529;28;20248;-69
2021/07/02 08:32:08;;;;;;;0.05;0.05;;;;;;;;;;5017959;28;20212;-69
2021/07/02 08:34:34;;;;;;;0.10;0.10;;;;;;;;;;5015711;28;20463;-68
2021/07/02 08:37:01;;;;;;;0.08;0.08;;;;;;;;;;5014734;28;20214;-68
2021/07/02 08:39:28;;;;;;;0.08;0.08;;;;;;;;;;5018167;28;20245;-67
2021/07/02 08:41:54;;;;;;;0.05;0.05;;;;;;;;;;5018358;28;20234;-67
2021/07/02 08:44:20;;;;;;;0.10;0.10;;;;;;;;;;5019899;28;20546;-68
2021/07/02 08:46:49;;;;;;;0.10;0.10;;;;;;;;;;5023539;28;20457;-67
2021/07/02 08:49:17;;;;;;;0.10;0.10;;;;;;;;;;5023191;28;20240;-68
2021/07/02 08:51:44;;;;;;;0.00;0.00;;;;;;;;;;5020892;28;20208;-68
2021/07/02 08:54:14;;;;;;;0.03;0.03;;;;;;;;;;5008694;28;20277;-67
2021/07/02 08:56:41;;;;;;;0.00;0.00;;;;;;;;;;5022324;28;20210;-67
2021/07/02 08:59:07;;;;;;;0.00;0.00;;;;;;;;;;5011816;28;20208;-67
2021/07/02 09:01:34;;;;;;;0.00;0.00;;;;;;;;;;5016613;28;20224;-67
2021/07/02 09:04:14;;;;;;;0.00;0.00;;;;;;;;;;5009015;28;20475;-66
2021/07/02 09:06:41;;;;;;;0.00;0.00;;;;;;;;;;5013793;28;20219;-68
2021/07/02 09:09:09;;;;;;;0.10;0.10;;;;;;;;;;5023169;28;20278;-67
2021/07/02 09:11:37;;;;;;;0.08;0.08;;;;;;;;;;5007849;28;20197;-68
2021/07/02 09:14:04;;;;;;;0.00;0.00;;;;;;;;;;5002877;28;20287;-67
2021/07/02 09:16:36;;;;;;;0.00;0.00;;;;;;;;;;5011604;28;20226;-67
2021/07/02 09:19:17;;;;;;;0.00;0.00;;;;;;;;;;5022552;28;20203;-67
2021/07/02 09:21:46;;;;;;;0.10;0.10;;;;;;;;;;5018727;28;20224;-66
2021/07/02 09:24:32;;;;;;;0.10;0.10;;;;;;;;;;5021404;28;20298;-67
2021/07/02 09:26:58;;;;;;;0.00;0.00;;;;;;;;;;5019667;28;20214;-67
2021/07/02 09:29:24;;;;;;;0.00;0.00;;;;;;;;;;5021568;28;20522;-68
2021/07/02 09:31:57;;;;;;;0.10;0.10;;;;;;;;;;5010800;28;20347;-68
2021/07/02 09:34:24;;;;;;;0.00;0.00;;;;;;;;;;5020721;28;20493;-68
2021/07/02 09:36:54;;;;;;;0.00;0.00;;;;;;;;;;5021921;28;20480;-68
2021/07/02 09:39:30;;;;;;;0.00;0.00;;;;;;;;;;5024914;28;20236;-69
2021/07/02 09:41:56;;;;;;;0.00;0.00;;;;;;;;;;5021442;28;20331;-69
2021/07/02 09:44:23;;;;;;;0.03;0.03;;;;;;;;;;5013317;28;20217;-68
2021/07/02 09:46:49;;;;;;;0.00;0.00;;;;;;;;;;5025694;28;20243;-70
2021/07/02 09:49:23;;;;;;;0.05;0.05;;;;;;;;;;5024455;28;20212;-68
2021/07/02 09:51:51;;;;;;;0.00;0.00;;;;;;;;;;5024032;28;20247;-69
2021/07/02 09:54:17;;;;;;;0.00;0.00;;;;;;;;;;5020327;28;20216;-69
2021/07/02 09:56:44;;;;;;;0.00;0.00;;;;;;;;;;5025176;28;20217;-69
2021/07/02 09:59:15;;;;;;;0.00;0.00;;;;;;;;;;5021561;28;20209;-69
2021/07/02 10:01:41;;;;;;;0.10;0.10;;;;;;;;;;5020449;28;20236;-68
2021/07/02 10:04:09;;;;;;;0.10;0.10;;;;;;;;;;5016084;28;20502;-69
2021/07/02 10:06:35;;;;;;;0.00;0.00;;;;;;;;;;5017565;28;20201;-68
2021/07/02 10:09:06;;;;;;;0.00;0.00;;;;;;;;;;5016853;28;20217;-69
2021/07/02 10:11:33;;;;;;;0.00;0.00;;;;;;;;;;5017173;28;20193;-68
2021/07/02 10:13:59;;;;;;;0.00;0.00;;;;;;;;;;5025431;28;20535;-67
2021/07/02 10:16:25;;;;;;;0.00;0.00;;;;;;;;;;5025543;28;20213;-67
2021/07/02 10:18:54;;;;;;;0.20;0.20;;;;;;;;;;5023019;28;20205;-69
2021/07/02 10:21:23;;;;;;;0.10;0.10;;;;;;;;;;5025109;28;20229;-69
2021/07/02 10:23:50;;;;;;;0.10;0.10;;;;;;;;;;5017002;28;20385;-69
2021/07/02 10:26:19;;;;;;;0.00;0.00;;;;;;;;;;5012589;28;20264;-65
2021/07/02 10:28:45;;;;;;;0.00;0.00;;;;;;;;;;5020237;28;20221;-66
2021/07/02 10:31:12;;;;;;;0.00;0.00;;;;;;;;;;5024975;28;20201;-67
2021/07/02 10:33:40;;;;;;;0.00;0.00;;;;;;;;;;5021864;28;20206;-67
2021/07/02 10:36:07;;;;;;;0.00;0.00;;;;;;;;;;5011536;28;20202;-66
2021/07/02 10:38:33;;;;;;;0.00;0.00;;;;;;;;;;5015660;28;20233;-67
2021/07/02 10:41:07;;;;;;;0.00;0.00;;;;;;;;;;5021073;28;20528;-67
2021/07/02 10:43:35;;;;;;;0.00;0.00;;;;;;;;;;5025194;28;20249;-66
2021/07/02 10:46:15;;;;;;;0.00;0.00;;;;;;;;;;5023086;28;20209;-66
2021/07/02 10:48:47;;;;;;;0.00;0.00;;;;;;;;;;5023351;28;20232;-67
2021/07/02 10:51:39;;;;;;;0.00;0.00;;;;;;;;;;5023596;28;20512;-65
2021/07/02 10:54:20;;;;;;;0.00;0.00;;;;;;;;;;5023905;28;20289;-66
2021/07/02 10:57:00;;;;;;;0.00;0.00;;;;;;;;;;5022641;28;20285;-66
2021/07/02 10:59:55;;;;;;;0.40;0.40;;;;;;;;;;5023682;28;20268;-65
2021/07/02 11:02:23;;;;;;;0.00;0.00;;;;;;;;;;5017378;28;20201;-66
2021/07/02 11:04:49;;;;;;;0.10;0.10;;;;;;;;;;5016525;28;20202;-67
2021/07/02 11:07:34;;;;;;;0.00;0.00;;;;;;;;;;5024534;28;20206;-65
2021/07/02 11:10:01;;;;;;;0.10;0.10;;;;;;;;;;5023988;28;20244;-65
2021/07/02 11:12:28;;;;;;;0.00;0.00;;;;;;;;;;5019558;28;20209;-66
2021/07/02 11:15:15;;;;;;;0.00;0.00;;;;;;;;;;5022556;28;20488;-66
2021/07/02 11:17:42;;;;;;;0.00;0.00;;;;;;;;;;5018977;28;20198;-67
2021/07/02 11:20:27;;;;;;;0.00;0.00;;;;;;;;;;5019827;28;20247;-66
2021/07/02 11:22:57;;;;;;;0.00;0.00;;;;;;;;;;5023058;28;20220;-67
2021/07/02 11:25:25;;;;;;;0.00;0.00;;;;;;;;;;5020015;28;20213;-66
2021/07/02 11:27:57;;;;;;;0.00;0.00;;;;;;;;;;5018145;28;20217;-67
2021/07/02 11:30:29;;;;;;;0.00;0.00;;;;;;;;;;5016453;28;20240;-66
2021/07/02 11:32:56;;;;;;;0.05;0.05;;;;;;;;;;5019667;28;20202;-67
2021/07/02 11:35:23;;;;;;;0.00;0.00;;;;;;;;;;5015798;28;20198;-66
2021/07/02 11:38:02;;;;;;;0.00;0.00;;;;;;;;;;5006684;28;20206;-66
2021/07/02 11:40:29;;;;;;;0.00;0.00;;;;;;;;;;5014192;28;20243;-66
2021/07/02 11:42:56;;;;;;;0.00;0.00;;;;;;;;;;5014168;28;20206;-65
2021/07/02 11:45:37;;;;;;;0.00;0.00;;;;;;;;;;5021197;28;20202;-66
2021/07/02 11:48:03;;;;;;;0.00;0.00;;;;;;;;;;5010686;28;20201;-66
2021/07/02 11:50:37;;;;;;;0.00;0.00;;;;;;;;;;5012431;28;20316;-67
2021/07/02 11:53:04;;;;;;;0.00;0.00;;;;;;;;;;5021439;28;20308;-67
2021/07/02 11:55:30;;;;;;;0.00;0.00;;;;;;;;;;5023090;28;20206;-67
2021/07/02 11:58:11;;;;;;;0.00;0.00;;;;;;;;;;5019558;28;20485;-68
2021/07/02 12:00:38;;;;;;;0.00;0.00;;;;;;;;;;5017860;28;20213;-67
2021/07/02 12:03:05;;;;;;;0.00;0.00;;;;;;;;;;5012785;28;20210;-66
2021/07/02 12:05:31;;;;;;;0.10;0.10;;;;;;;;;;5009917;28;20212;-67
2021/07/02 12:07:57;;;;;;;0.00;0.00;;;;;;;;;;5012211;28;20213;-66
2021/07/02 12:10:24;;;;;;;0.10;0.10;;;;;;;;;;5020666;28;20496;-67
2021/07/02 12:12:50;;;;;;;0.00;0.00;;;;;;;;;;5012856;28;20210;-67
2021/07/02 12:15:24;;;;;;;0.00;0.00;;;;;;;;;;5018113;28;20213;-67
2021/07/02 12:18:00;;;;;;;0.00;0.00;;;;;;;;;;5022538;28;20268;-68
2021/07/02 12:20:26;;;;;;;0.00;0.00;;;;;;;;;;5018160;28;20270;-67
2021/07/02 12:23:00;;;;;;;0.00;0.00;;;;;;;;;;5022496;28;20209;-68
2021/07/02 12:25:26;;;;;;;0.10;0.10;;;;;;;;;;5020374;28;20233;-66
2021/07/02 12:27:56;;;;;;;0.00;0.00;;;;;;;;;;5005685;28;20352;-67
2021/07/02 12:30:23;;;;;;;0.00;0.00;;;;;;;;;;5010479;28;20217;-68
2021/07/02 12:32:51;;;;;;;0.13;0.13;;;;;;;;;;5015527;28;20268;-66
2021/07/02 12:35:19;;;;;;;0.00;0.00;;;;;;;;;;5017954;28;20309;-68
2021/07/02 12:37:46;;;;;;;0.10;0.10;;;;;;;;;;5021057;28;20488;-68
2021/07/02 12:40:13;;;;;;;0.00;0.00;;;;;;;;;;5005254;28;20273;-68
2021/07/02 12:42:42;;;;;;;0.00;0.00;;;;;;;;;;5004267;28;20264;-67
2021/07/02 12:45:10;;;;;;;0.00;0.00;;;;;;;;;;5011894;28;20205;-68
2021/07/02 12:47:38;;;;;;;0.10;0.10;;;;;;;;;;5010849;28;20252;-69
2021/07/02 12:50:05;;;;;;;0.00;0.00;;;;;;;;;;5016246;28;20251;-68
2021/07/02 12:55:25;;;;;;;0.00;0.00;;;;;;;;;;5010368;28;20193;-68
2021/07/02 12:57:53;;;;;;;0.00;0.00;;;;;;;;;;5011996;28;20206;-67
2021/07/02 13:00:24;;;;;;;0.00;0.00;;;;;;;;;;5011481;28;20203;-67
2021/07/02 13:02:51;;;;;;;0.30;0.30;;;;;;;;;;5013735;28;20475;-66
2021/07/02 13:05:26;;;;;;;0.00;0.00;;;;;;;;;;5012333;28;20358;-67
2021/07/02 13:07:55;;;;;;;0.00;0.00;;;;;;;;;;5015419;28;20251;-69
2021/07/02 13:10:23;;;;;;;0.00;0.00;;;;;;;;;;5008473;28;20213;-68
2021/07/02 13:13:04;;;;;;;0.00;0.00;;;;;;;;;;5019582;28;20198;-68
2021/07/02 13:15:30;;;;;;;0.00;0.00;;;;;;;;;;5009707;28;20573;-67
2021/07/02 13:17:57;;;;;;;0.08;0.08;;;;;;;;;;5005135;28;20206;-67
2021/07/02 13:20:40;;;;;;;0.00;0.00;;;;;;;;;;5007189;28;20205;-67
2021/07/02 13:23:08;;;;;;;0.10;0.10;;;;;;;;;;5011660;28;20206;-67
2021/07/02 13:25:34;;;;;;;0.00;0.00;;;;;;;;;;5015960;28;20228;-67
2021/07/02 13:28:01;;;;;;;0.00;0.00;;;;;;;;;;5014685;28;20218;-67
2021/07/02 13:30:27;;;;;;;0.00;0.00;;;;;;;;;;5013663;28;20205;-67
2021/07/02 13:33:03;;;;;;;0.00;0.00;;;;;;;;;;5011647;28;20228;-68
2021/07/02 13:35:29;;;;;;;0.00;0.00;;;;;;;;;;5015643;28;20264;-67
2021/07/02 13:37:56;;;;;;;0.00;0.00;;;;;;;;;;5004618;28;20272;-68
2021/07/02 13:40:36;;;;;;;0.10;0.10;;;;;;;;;;5012812;28;20265;-67
2021/07/02 13:43:04;;;;;;;0.00;0.00;;;;;;;;;;5011211;28;20209;-66
2021/07/02 13:45:30;;;;;;;0.65;0.57;;;;;;;;;;5015022;28;20447;-68
2021/07/02 13:48:05;;;;;;;0.00;0.00;;;;;;;;;;5013099;28;20210;-68
2021/07/02 13:50:32;;;;;;;0.00;0.00;;;;;;;;;;5005966;28;20205;-67
2021/07/02 13:52:58;;;;;;;0.00;0.00;;;;;;;;;;5008032;28;20493;-67
2021/07/02 13:55:24;;;;;;;0.00;0.00;;;;;;;;;;5017929;28;20209;-67
2021/07/02 13:57:52;;;;;;;0.00;0.00;;;;;;;;;;5013237;28;20301;-66
2021/07/02 14:00:18;;;;;;;0.00;0.00;;;;;;;;;;5011953;28;20202;-68
2021/07/02 14:02:44;;;;;;;0.00;0.00;;;;;;;;;;5009634;28;20268;-68
2021/07/02 14:05:11;;;;;;;0.00;0.00;;;;;;;;;;5016707;28;20225;-67
2021/07/02 14:07:37;;;;;;;0.00;0.00;;;;;;;;;;5013767;28;20206;-70
2021/07/02 14:10:04;;;;;;;0.00;0.00;;;;;;;;;;5011326;28;20210;-70
2021/07/02 14:12:30;;;;;;;0.30;0.30;;;;;;;;;;5010438;28;20204;-70
2021/07/02 14:14:57;;;;;;;0.20;0.20;;;;;;;;;;5013210;28;20431;-71
2021/07/02 14:17:24;;;;;;;0.17;0.17;;;;;;;;;;5015436;28;20253;-69
2021/07/02 14:19:50;;;;;;;0.00;0.00;;;;;;;;;;5021589;28;20244;-71
2021/07/02 14:22:17;;;;;;;0.00;0.00;;;;;;;;;;5002164;28;20331;-70
2021/07/02 14:24:43;;;;;;;0.00;0.00;;;;;;;;;;5008203;28;20226;-69
2021/07/02 14:27:09;;;;;;;0.00;0.00;;;;;;;;;;5013013;28;20209;-70
2021/07/02 14:29:35;;;;;;;0.00;0.00;;;;;;;;;;5019172;28;20241;-69
2021/07/02 14:32:03;;;;;;;0.00;0.00;;;;;;;;;;5006975;28;20206;-70
2021/07/02 14:34:30;;;;;;;0.08;0.08;;;;;;;;;;5020964;28;20244;-69
2021/07/02 14:36:56;;;;;;;0.10;0.10;;;;;;;;;;5015300;28;20217;-72
2021/07/02 14:39:22;;;;;;;0.00;0.00;;;;;;;;;;5021043;28;20305;-71
2021/07/02 14:41:48;;;;;;;0.00;0.00;;;;;;;;;;5018818;28;20233;-71
2021/07/02 14:44:14;;;;;;;0.10;0.10;;;;;;;;;;5019535;28;20433;-71
2021/07/02 14:46:41;;;;;;;0.00;0.00;;;;;;;;;;5009077;28;20198;-71
2021/07/02 14:49:08;;;;;;;0.00;0.00;;;;;;;;;;5017769;28;20489;-71